Current Weather

Lehigh Valley Intl

Allentown, Pennsylvania (KABE)

Report from: Tuesday, May 21, 2024 10:51 AM EDT
Current time: Tuesday, May 21, 2024 12:00 PM EDT

Nearby weather – Weather history – Daily summaries
Weather forecast

Temperature24.4°C (75.9°F)
Dew point16.7°C (62.1°F)
Winds Calm
Visibility10 mi. (16.1 km)
Clouds Sky clear
Altimeter30.00 in.Hg (1016 mB)
Relative humidity62 %
Density altitude1,272 ft. (388 m)
Sea-level pressure101.6 kPa (1016 mB, 29.99 in.Hg)
Remarks Automated weather observing station with precipitation discriminator
Pressure falling more quickly
Flight conditions Visual Meteorological Conditions
Raw dataKABE 211451Z 00000KT 10SM CLR 24/17 A3000 RMK AO2 SLP156 T02440167 58006
An error has occurred. This application may no longer respond until reloaded. Reload 🗙